createdAt,value
2023-02-11T05:39:46.856Z,45.00
2023-02-11T05:52:20.210Z,30.65
2023-02-11T05:54:47.182Z,41.17
2023-02-11T05:57:14.408Z,33.03
2023-02-11T05:59:42.015Z,38.38
2023-02-11T06:02:10.382Z,42.65
2023-02-11T06:04:38.106Z,29.25
2023-02-11T06:07:05.668Z,53.75
2023-02-11T06:09:33.970Z,37.25
2023-02-11T06:14:41.899Z,37.47
2023-02-11T06:17:09.305Z,42.70
2023-02-11T06:25:11.574Z,40.13
2023-02-11T06:27:40.392Z,42.25
2023-02-11T06:30:13.329Z,47.47
2023-02-11T06:32:44.494Z,40.35
2023-02-11T06:38:01.552Z,43.25
2023-02-11T06:40:39.330Z,47.08
2023-02-11T06:46:33.028Z,55.30
2023-02-11T06:49:01.155Z,39.45
2023-02-11T06:51:31.912Z,31.95
2023-02-11T06:54:02.758Z,43.95
2023-02-11T06:59:41.528Z,42.92
2023-02-11T07:02:10.422Z,41.38
2023-02-11T07:04:45.000Z,39.33
2023-02-11T07:23:14.826Z,38.05
2023-02-11T07:25:52.971Z,33.65
2023-02-11T07:31:45.554Z,40.08
2023-02-11T07:34:12.357Z,40.85
2023-02-11T07:43:40.639Z,42.78
2023-02-11T08:09:28.889Z,40.20
2023-02-11T08:26:06.984Z,34.35
2023-02-11T08:28:46.014Z,31.38
2023-02-11T08:59:40.485Z,33.92
2023-02-11T09:02:07.307Z,26.10
2023-02-11T09:04:34.428Z,26.75
2023-02-11T09:07:09.407Z,26.00
2023-02-11T09:09:36.712Z,31.08
2023-02-11T09:12:04.045Z,35.13
2023-02-11T09:17:35.793Z,30.88
2023-02-11T09:20:02.604Z,27.52
2023-02-11T09:22:29.535Z,25.17
2023-02-11T09:38:05.915Z,113.20
2023-02-11T09:40:35.224Z,12.23
2023-02-11T09:43:06.652Z,14.43
2023-02-11T09:45:33.582Z,15.02
2023-02-11T10:03:58.156Z,15.00
2023-02-11T10:13:00.631Z,15.98
2023-02-11T10:15:41.285Z,10.27
2023-02-11T10:21:53.708Z,12.05
2023-02-11T10:24:24.485Z,24.42
2023-02-11T10:33:00.606Z,11.13
2023-02-11T10:40:54.875Z,15.77
2023-02-11T10:43:26.271Z,10.93
2023-02-11T10:45:55.426Z,8.85
2023-02-11T10:48:41.980Z,15.40
2023-02-11T10:51:16.348Z,12.27
2023-02-11T10:53:43.268Z,9.13
2023-02-11T10:56:14.344Z,13.02
2023-02-11T10:58:45.008Z,10.35
2023-02-11T11:01:23.788Z,9.18
2023-02-11T11:04:26.900Z,18.48
2023-02-11T11:06:54.479Z,9.65
2023-02-11T11:12:36.544Z,12.75
2023-02-11T11:21:07.560Z,11.70
2023-02-11T11:23:36.828Z,7.82
2023-02-11T11:28:58.137Z,8.93
2023-02-11T11:31:28.866Z,13.55
2023-02-11T11:33:58.814Z,13.38
2023-02-11T11:36:35.828Z,15.48
2023-02-11T11:39:15.276Z,10.98
2023-02-11T11:41:51.863Z,10.07
2023-02-11T11:44:24.606Z,9.20
2023-02-11T11:47:04.657Z,12.93
2023-02-11T11:49:35.830Z,10.43
2023-02-11T11:52:16.111Z,8.95
2023-02-11T11:54:46.584Z,9.00
2023-02-11T11:57:16.788Z,10.30
2023-02-11T11:59:43.837Z,9.88
2023-02-11T12:02:33.783Z,15.32
2023-02-11T12:05:03.362Z,11.93
2023-02-11T12:07:53.080Z,7.57
2023-02-11T12:10:35.240Z,11.25
2023-02-11T12:13:14.042Z,9.68
2023-02-11T12:15:46.724Z,11.80
2023-02-11T12:18:27.739Z,8.05
2023-02-11T12:21:15.551Z,9.77
2023-02-11T12:23:58.548Z,15.20
2023-02-11T12:26:33.939Z,10.18
2023-02-11T13:25:28.496Z,16.23
2023-02-11T14:15:58.840Z,9.18
2023-02-11T15:11:57.878Z,9.60
2023-02-11T15:17:42.725Z,10.48
2023-02-11T15:23:09.527Z,7.93
2023-02-11T15:28:28.538Z,8.73
2023-02-11T15:31:06.910Z,12.73
2023-02-11T15:33:36.892Z,15.98
2023-02-11T15:42:24.572Z,12.07
2023-02-11T15:45:09.710Z,6.88
2023-02-11T15:47:57.440Z,11.63
2023-02-11T15:50:29.319Z,8.20
2023-02-11T15:55:44.277Z,8.02
2023-02-11T16:09:36.189Z,7.88
2023-02-11T16:14:47.882Z,10.52
2023-02-11T16:23:59.567Z,6.93
2023-02-11T16:26:56.600Z,19.25
2023-02-11T16:38:43.074Z,9.35
2023-02-11T18:48:33.855Z,13.57
2023-02-11T18:51:00.675Z,11.70
2023-02-11T18:53:28.549Z,9.15
2023-02-11T18:55:55.592Z,13.90
2023-02-11T18:58:22.558Z,11.10
2023-02-11T19:00:50.854Z,13.82
2023-02-11T19:03:17.726Z,12.93
2023-02-11T19:05:47.436Z,12.73
2023-02-11T19:08:15.069Z,10.27
2023-02-11T19:10:43.398Z,10.75
2023-02-11T19:13:10.393Z,13.82
2023-02-11T19:15:41.361Z,8.02
2023-02-11T19:18:08.250Z,8.93
2023-02-11T19:20:35.124Z,14.38
2023-02-11T19:23:03.716Z,14.43
2023-02-11T19:25:30.382Z,12.90
2023-02-11T19:27:57.092Z,13.38
2023-02-11T19:30:23.818Z,13.10
2023-02-11T19:32:50.903Z,12.50
2023-02-11T19:35:17.988Z,17.23
2023-02-11T19:37:44.863Z,13.18
2023-02-11T19:40:15.241Z,14.45
2023-02-11T19:42:42.254Z,16.45
2023-02-11T19:45:09.960Z,9.45
2023-02-11T19:47:37.282Z,14.30
2023-02-11T19:50:05.133Z,16.80
2023-02-11T19:52:32.330Z,13.00
2023-02-11T19:54:59.470Z,16.85
2023-02-11T19:57:27.721Z,14.57
2023-02-11T19:59:55.821Z,18.70
2023-02-11T20:02:22.858Z,14.88
2023-02-11T20:04:49.684Z,23.23
2023-02-11T20:07:16.787Z,13.60
2023-02-11T20:09:43.805Z,11.88
2023-02-11T20:12:10.714Z,15.43
2023-02-11T20:14:39.170Z,19.25
2023-02-11T20:17:06.392Z,18.48
2023-02-11T20:19:33.238Z,12.23
2023-02-11T20:22:00.121Z,16.70
2023-02-11T20:24:26.895Z,15.27
2023-02-11T20:26:53.907Z,17.63
2023-02-11T20:29:22.154Z,21.58
2023-02-11T20:31:51.059Z,17.40
2023-02-11T20:34:18.320Z,12.68
2023-02-11T20:36:45.729Z,15.98
2023-02-11T20:39:12.803Z,24.08
2023-02-11T20:41:40.066Z,15.43
2023-02-11T20:44:08.860Z,20.05
2023-02-11T20:46:38.820Z,26.13
2023-02-11T20:49:07.482Z,19.25
2023-02-11T20:51:35.076Z,19.23
2023-02-11T20:54:01.813Z,18.73
2023-02-11T20:56:30.484Z,19.38
2023-02-11T20:58:58.004Z,19.20
2023-02-11T21:01:27.467Z,16.02
2023-02-11T21:03:56.169Z,21.00
2023-02-11T21:06:26.920Z,21.65
2023-02-11T21:08:54.130Z,28.05
2023-02-11T21:11:21.070Z,18.92
2023-02-11T21:13:48.217Z,20.70
2023-02-11T21:16:17.606Z,19.33
2023-02-11T21:18:44.452Z,23.75
2023-02-11T21:21:11.234Z,20.17
2023-02-11T21:23:39.422Z,22.45
2023-02-11T21:26:06.893Z,22.02
2023-02-11T21:28:34.207Z,23.45
2023-02-11T21:31:02.029Z,19.25
2023-02-11T21:33:29.863Z,18.23
2023-02-11T21:35:57.795Z,18.58
2023-02-11T21:38:26.013Z,16.95
2023-02-11T21:40:54.471Z,18.17
2023-02-11T21:43:21.448Z,17.83
2023-02-11T21:45:51.473Z,21.25
2023-02-11T21:48:18.767Z,19.63
2023-02-11T21:50:49.639Z,27.13
2023-02-11T21:53:16.395Z,21.02
2023-02-11T21:55:43.673Z,16.13
2023-02-11T21:58:13.647Z,20.45
2023-02-11T22:00:40.813Z,28.23
2023-02-11T22:03:10.193Z,21.45
2023-02-11T22:05:40.273Z,18.33
2023-02-11T22:08:07.051Z,32.08
2023-02-11T22:10:34.986Z,23.40
